sensor_id;sensor_type;location;lat;lon;timestamp;temperature;humidity
2465;DHT22;1244;54.326;10.074;2022-11-15T00:00:52;5.00;99.90
2465;DHT22;1244;54.326;10.074;2022-11-15T00:03:20;5.00;99.90
2465;DHT22;1244;54.326;10.074;2022-11-15T00:05:47;5.10;99.90
2465;DHT22;1244;54.326;10.074;2022-11-15T00:08:13;5.30;99.90
2465;DHT22;1244;54.326;10.074;2022-11-15T00:10:39;5.10;99.90
2465;DHT22;1244;54.326;10.074;2022-11-15T00:13:09;5.10;99.90
2465;DHT22;1244;54.326;10.074;2022-11-15T00:15:40;5.20;99.90
2465;DHT22;1244;54.326;10.074;2022-11-15T00:18:09;5.30;99.90
2465;DHT22;1244;54.326;10.074;2022-11-15T00:20:37;5.30;99.90
2465;DHT22;1244;54.326;10.074;2022-11-15T00:23:06;5.40;99.90
2465;DHT22;1244;54.326;10.074;2022-11-15T00:25:32;5.40;99.90
2465;DHT22;1244;54.326;10.074;2022-11-15T00:27:59;5.50;99.90
2465;DHT22;1244;54.326;10.074;2022-11-15T00:30:26;5.40;99.90
2465;DHT22;1244;54.326;10.074;2022-11-15T00:32:51;5.40;99.90
2465;DHT22;1244;54.326;10.074;2022-11-15T00:35:18;5.40;99.90
2465;DHT22;1244;54.326;10.074;2022-11-15T00:37:43;5.40;99.90
2465;DHT22;1244;54.326;10.074;2022-11-15T00:40:11;5.50;99.90
2465;DHT22;1244;54.326;10.074;2022-11-15T00:42:38;5.40;99.90
2465;DHT22;1244;54.326;10.074;2022-11-15T00:45:04;5.40;99.90
2465;DHT22;1244;54.326;10.074;2022-11-15T00:47:29;5.20;99.90
2465;DHT22;1244;54.326;10.074;2022-11-15T00:49:55;5.00;99.90
2465;DHT22;1244;54.326;10.074;2022-11-15T00:52:20;4.90;99.90
2465;DHT22;1244;54.326;10.074;2022-11-15T00:54:46;5.10;99.90
2465;DHT22;1244;54.326;10.074;2022-11-15T00:57:11;5.10;99.90
2465;DHT22;1244;54.326;10.074;2022-11-15T00:59:36;5.10;99.90
2465;DHT22;1244;54.326;10.074;2022-11-15T01:02:02;5.20;99.90
2465;DHT22;1244;54.326;10.074;2022-11-15T01:04:27;5.40;99.90
2465;DHT22;1244;54.326;10.074;2022-11-15T01:06:53;5.50;99.90
2465;DHT22;1244;54.326;10.074;2022-11-15T01:09:19;5.50;99.90
2465;DHT22;1244;54.326;10.074;2022-11-15T01:11:44;5.60;99.90
2465;DHT22;1244;54.326;10.074;2022-11-15T01:14:10;5.60;99.90
2465;DHT22;1244;54.326;10.074;2022-11-15T01:16:35;5.70;99.90
2465;DHT22;1244;54.326;10.074;2022-11-15T01:19:01;5.70;99.90
2465;DHT22;1244;54.326;10.074;2022-11-15T01:21:26;5.70;99.90
2465;DHT22;1244;54.326;10.074;2022-11-15T01:23:53;5.60;99.90
2465;DHT22;1244;54.326;10.074;2022-11-15T01:26:20;5.70;99.90
2465;DHT22;1244;54.326;10.074;2022-11-15T01:28:46;5.70;99.90
2465;DHT22;1244;54.326;10.074;2022-11-15T01:31:17;5.70;99.90
2465;DHT22;1244;54.326;10.074;2022-11-15T01:33:43;5.70;99.90
2465;DHT22;1244;54.326;10.074;2022-11-15T01:36:12;5.70;99.90
2465;DHT22;1244;54.326;10.074;2022-11-15T01:38:38;5.70;99.90
2465;DHT22;1244;54.326;10.074;2022-11-15T01:41:04;5.70;99.90
2465;DHT22;1244;54.326;10.074;2022-11-15T01:43:35;5.70;99.90
2465;DHT22;1244;54.326;10.074;2022-11-15T01:46:18;5.70;99.90
2465;DHT22;1244;54.326;10.074;2022-11-15T01:48:47;5.70;99.90
2465;DHT22;1244;54.326;10.074;2022-11-15T01:51:16;5.70;99.90
2465;DHT22;1244;54.326;10.074;2022-11-15T01:53:46;5.80;99.90
2465;DHT22;1244;54.326;10.074;2022-11-15T01:56:17;5.80;99.90
2465;DHT22;1244;54.326;10.074;2022-11-15T01:58:45;5.80;99.90
2465;DHT22;1244;54.326;10.074;2022-11-15T02:01:12;5.80;99.90
2465;DHT22;1244;54.326;10.074;2022-11-15T02:06:08;5.70;99.90
2465;DHT22;1244;54.326;10.074;2022-11-15T02:08:34;5.80;99.90
2465;DHT22;1244;54.326;10.074;2022-11-15T02:10:59;5.80;99.90
2465;DHT22;1244;54.326;10.074;2022-11-15T02:13:25;5.80;99.90
2465;DHT22;1244;54.326;10.074;2022-11-15T02:16:11;5.80;99.90
2465;DHT22;1244;54.326;10.074;2022-11-15T02:18:44;5.80;99.90
2465;DHT22;1244;54.326;10.074;2022-11-15T02:27:15;5.80;99.90
2465;DHT22;1244;54.326;10.074;2022-11-15T02:32:43;5.80;99.90
2465;DHT22;1244;54.326;10.074;2022-11-15T02:35:49;5.70;99.90
2465;DHT22;1244;54.326;10.074;2022-11-15T02:43:47;5.70;99.90
2465;DHT22;1244;54.326;10.074;2022-11-15T02:46:40;5.60;99.90
2465;DHT22;1244;54.326;10.074;2022-11-15T02:49:28;5.60;99.90
2465;DHT22;1244;54.326;10.074;2022-11-15T02:51:55;5.60;99.90
2465;DHT22;1244;54.326;10.074;2022-11-15T02:54:26;5.60;99.90
2465;DHT22;1244;54.326;10.074;2022-11-15T02:57:01;5.60;99.90
2465;DHT22;1244;54.326;10.074;2022-11-15T02:59:54;5.50;99.90
2465;DHT22;1244;54.326;10.074;2022-11-15T03:02:57;5.50;99.90
2465;DHT22;1244;54.326;10.074;2022-11-15T03:05:51;5.40;99.90
2465;DHT22;1244;54.326;10.074;2022-11-15T03:08:29;5.40;99.90
2465;DHT22;1244;54.326;10.074;2022-11-15T03:11:26;5.40;99.90
2465;DHT22;1244;54.326;10.074;2022-11-15T03:14:29;5.30;99.90
2465;DHT22;1244;54.326;10.074;2022-11-15T03:17:01;5.40;99.90
2465;DHT22;1244;54.326;10.074;2022-11-15T03:19:38;5.40;99.90
2465;DHT22;1244;54.326;10.074;2022-11-15T03:22:08;5.30;99.90
2465;DHT22;1244;54.326;10.074;2022-11-15T03:24:37;5.30;99.90
2465;DHT22;1244;54.326;10.074;2022-11-15T03:27:05;5.30;99.90
2465;DHT22;1244;54.326;10.074;2022-11-15T03:29:45;5.30;99.90
2465;DHT22;1244;54.326;10.074;2022-11-15T03:32:25;5.30;99.90
2465;DHT22;1244;54.326;10.074;2022-11-15T03:37:17;5.20;99.90
2465;DHT22;1244;54.326;10.074;2022-11-15T03:39:46;5.20;99.90
2465;DHT22;1244;54.326;10.074;2022-11-15T03:42:29;5.20;99.90
2465;DHT22;1244;54.326;10.074;2022-11-15T03:45:19;5.20;99.90
2465;DHT22;1244;54.326;10.074;2022-11-15T03:48:06;5.10;99.90
2465;DHT22;1244;54.326;10.074;2022-11-15T03:50:34;5.10;99.90
2465;DHT22;1244;54.326;10.074;2022-11-15T03:53:00;5.10;99.90
2465;DHT22;1244;54.326;10.074;2022-11-15T03:55:26;5.20;99.90
2465;DHT22;1244;54.326;10.074;2022-11-15T03:57:53;5.10;99.90
2465;DHT22;1244;54.326;10.074;2022-11-15T04:00:20;5.10;99.90
2465;DHT22;1244;54.326;10.074;2022-11-15T04:02:45;5.10;99.90
2465;DHT22;1244;54.326;10.074;2022-11-15T04:05:11;5.10;99.90
2465;DHT22;1244;54.326;10.074;2022-11-15T04:07:36;5.10;99.90
2465;DHT22;1244;54.326;10.074;2022-11-15T04:10:02;5.10;99.90
2465;DHT22;1244;54.326;10.074;2022-11-15T04:12:33;5.10;99.90
2465;DHT22;1244;54.326;10.074;2022-11-15T04:15:05;5.10;99.90
2465;DHT22;1244;54.326;10.074;2022-11-15T04:17:38;5.10;99.90
2465;DHT22;1244;54.326;10.074;2022-11-15T04:20:06;5.10;99.90
2465;DHT22;1244;54.326;10.074;2022-11-15T04:22:55;5.00;99.90
2465;DHT22;1244;54.326;10.074;2022-11-15T04:25:40;5.00;99.90
2465;DHT22;1244;54.326;10.074;2022-11-15T04:28:05;5.00;99.90
2465;DHT22;1244;54.326;10.074;2022-11-15T04:30:31;5.00;99.90
2465;DHT22;1244;54.326;10.074;2022-11-15T04:32:56;5.00;99.90
2465;DHT22;1244;54.326;10.074;2022-11-15T04:35:22;5.00;99.90
2465;DHT22;1244;54.326;10.074;2022-11-15T04:37:47;5.00;99.90
2465;DHT22;1244;54.326;10.074;2022-11-15T04:40:13;5.00;99.90
2465;DHT22;1244;54.326;10.074;2022-11-15T04:42:41;5.00;99.90
2465;DHT22;1244;54.326;10.074;2022-11-15T04:45:07;5.00;99.90
2465;DHT22;1244;54.326;10.074;2022-11-15T04:47:32;5.00;99.90
2465;DHT22;1244;54.326;10.074;2022-11-15T04:49:58;5.00;99.90
2465;DHT22;1244;54.326;10.074;2022-11-15T04:52:23;5.00;99.90
2465;DHT22;1244;54.326;10.074;2022-11-15T04:54:49;5.00;99.90
2465;DHT22;1244;54.326;10.074;2022-11-15T04:57:14;5.00;99.90
2465;DHT22;1244;54.326;10.074;2022-11-15T04:59:40;4.90;99.90
2465;DHT22;1244;54.326;10.074;2022-11-15T05:02:05;4.90;99.90
2465;DHT22;1244;54.326;10.074;2022-11-15T05:04:30;4.90;99.90
2465;DHT22;1244;54.326;10.074;2022-11-15T05:06:56;4.80;99.90
2465;DHT22;1244;54.326;10.074;2022-11-15T05:09:21;4.80;99.90
2465;DHT22;1244;54.326;10.074;2022-11-15T05:11:47;4.80;99.90
2465;DHT22;1244;54.326;10.074;2022-11-15T05:14:13;4.80;99.90
2465;DHT22;1244;54.326;10.074;2022-11-15T05:16:39;4.70;99.90
2465;DHT22;1244;54.326;10.074;2022-11-15T05:19:05;4.70;99.90
2465;DHT22;1244;54.326;10.074;2022-11-15T05:21:31;4.70;99.90
2465;DHT22;1244;54.326;10.074;2022-11-15T05:23:57;4.70;99.90
2465;DHT22;1244;54.326;10.074;2022-11-15T05:26:23;4.70;99.90
2465;DHT22;1244;54.326;10.074;2022-11-15T05:28:53;4.70;99.90
2465;DHT22;1244;54.326;10.074;2022-11-15T05:31:19;4.70;99.90
2465;DHT22;1244;54.326;10.074;2022-11-15T05:33:44;4.60;99.90
2465;DHT22;1244;54.326;10.074;2022-11-15T05:36:25;4.60;99.90
2465;DHT22;1244;54.326;10.074;2022-11-15T05:38:53;4.60;99.90
2465;DHT22;1244;54.326;10.074;2022-11-15T05:41:22;4.60;99.90
2465;DHT22;1244;54.326;10.074;2022-11-15T05:43:50;4.70;99.90
2465;DHT22;1244;54.326;10.074;2022-11-15T05:46:17;4.80;99.90
2465;DHT22;1244;54.326;10.074;2022-11-15T05:48:45;4.90;99.90
2465;DHT22;1244;54.326;10.074;2022-11-15T05:51:12;4.90;99.90
2465;DHT22;1244;54.326;10.074;2022-11-15T05:53:39;5.00;99.90
2465;DHT22;1244;54.326;10.074;2022-11-15T05:56:05;5.10;99.90
2465;DHT22;1244;54.326;10.074;2022-11-15T05:58:32;5.10;99.90
2465;DHT22;1244;54.326;10.074;2022-11-15T06:00:59;5.10;99.90
2465;DHT22;1244;54.326;10.074;2022-11-15T06:03:24;5.10;99.90
2465;DHT22;1244;54.326;10.074;2022-11-15T06:05:50;5.20;99.90
2465;DHT22;1244;54.326;10.074;2022-11-15T06:08:15;5.20;99.90
2465;DHT22;1244;54.326;10.074;2022-11-15T06:10:41;5.20;99.90
2465;DHT22;1244;54.326;10.074;2022-11-15T06:13:06;5.20;99.90
2465;DHT22;1244;54.326;10.074;2022-11-15T06:15:33;5.30;99.90
2465;DHT22;1244;54.326;10.074;2022-11-15T06:18:01;5.30;99.90
2465;DHT22;1244;54.326;10.074;2022-11-15T06:20:28;5.30;99.90
2465;DHT22;1244;54.326;10.074;2022-11-15T06:22:58;5.30;99.90
2465;DHT22;1244;54.326;10.074;2022-11-15T06:25:24;5.30;99.90
2465;DHT22;1244;54.326;10.074;2022-11-15T06:27:53;5.40;99.90
2465;DHT22;1244;54.326;10.074;2022-11-15T06:30:19;5.40;99.90
2465;DHT22;1244;54.326;10.074;2022-11-15T06:32:45;5.40;99.90
2465;DHT22;1244;54.326;10.074;2022-11-15T06:35:10;5.40;99.90
2465;DHT22;1244;54.326;10.074;2022-11-15T06:37:36;5.40;99.90
2465;DHT22;1244;54.326;10.074;2022-11-15T06:40:02;5.40;99.90
2465;DHT22;1244;54.326;10.074;2022-11-15T06:42:27;5.40;99.90
2465;DHT22;1244;54.326;10.074;2022-11-15T06:44:53;5.40;99.90
2465;DHT22;1244;54.326;10.074;2022-11-15T06:47:18;5.40;99.90
2465;DHT22;1244;54.326;10.074;2022-11-15T06:49:44;5.40;99.90
2465;DHT22;1244;54.326;10.074;2022-11-15T06:52:09;5.40;99.90
2465;DHT22;1244;54.326;10.074;2022-11-15T06:54:35;5.40;99.90
2465;DHT22;1244;54.326;10.074;2022-11-15T06:57:00;5.40;99.90
2465;DHT22;1244;54.326;10.074;2022-11-15T06:59:26;5.50;99.90
2465;DHT22;1244;54.326;10.074;2022-11-15T07:01:51;5.50;99.90
2465;DHT22;1244;54.326;10.074;2022-11-15T07:04:17;5.60;99.90
2465;DHT22;1244;54.326;10.074;2022-11-15T07:06:42;5.60;99.90
2465;DHT22;1244;54.326;10.074;2022-11-15T07:09:07;5.70;99.90
2465;DHT22;1244;54.326;10.074;2022-11-15T07:11:33;5.80;99.90
2465;DHT22;1244;54.326;10.074;2022-11-15T07:13:59;5.80;99.90
2465;DHT22;1244;54.326;10.074;2022-11-15T07:16:25;5.80;99.90
2465;DHT22;1244;54.326;10.074;2022-11-15T07:18:50;5.90;99.90
2465;DHT22;1244;54.326;10.074;2022-11-15T07:21:16;6.00;99.90
2465;DHT22;1244;54.326;10.074;2022-11-15T07:23:41;6.00;99.90
2465;DHT22;1244;54.326;10.074;2022-11-15T07:26:07;6.10;99.90
2465;DHT22;1244;54.326;10.074;2022-11-15T07:28:33;6.10;99.90
2465;DHT22;1244;54.326;10.074;2022-11-15T07:31:03;6.10;99.90
2465;DHT22;1244;54.326;10.074;2022-11-15T07:33:29;6.10;99.90
2465;DHT22;1244;54.326;10.074;2022-11-15T07:35:58;6.10;99.90
2465;DHT22;1244;54.326;10.074;2022-11-15T07:38:24;6.10;99.90
2465;DHT22;1244;54.326;10.074;2022-11-15T07:40:56;6.20;99.90
2465;DHT22;1244;54.326;10.074;2022-11-15T07:43:22;6.20;99.90
2465;DHT22;1244;54.326;10.074;2022-11-15T07:45:48;6.20;99.90
2465;DHT22;1244;54.326;10.074;2022-11-15T07:48:13;6.20;99.90
2465;DHT22;1244;54.326;10.074;2022-11-15T07:50:42;6.20;99.90
2465;DHT22;1244;54.326;10.074;2022-11-15T07:53:09;6.20;99.90
2465;DHT22;1244;54.326;10.074;2022-11-15T07:55:35;6.30;99.90
2465;DHT22;1244;54.326;10.074;2022-11-15T07:58:06;6.30;99.90
2465;DHT22;1244;54.326;10.074;2022-11-15T08:00:33;6.30;99.90
2465;DHT22;1244;54.326;10.074;2022-11-15T08:03:10;6.30;99.90
2465;DHT22;1244;54.326;10.074;2022-11-15T08:05:37;6.40;99.90
2465;DHT22;1244;54.326;10.074;2022-11-15T08:08:03;6.40;99.90
2465;DHT22;1244;54.326;10.074;2022-11-15T08:10:29;6.40;99.90
2465;DHT22;1244;54.326;10.074;2022-11-15T08:13:04;6.50;99.90
2465;DHT22;1244;54.326;10.074;2022-11-15T08:15:30;6.50;99.90
2465;DHT22;1244;54.326;10.074;2022-11-15T08:18:01;6.50;99.90
2465;DHT22;1244;54.326;10.074;2022-11-15T08:20:28;6.60;99.90
2465;DHT22;1244;54.326;10.074;2022-11-15T08:22:58;6.50;99.90
2465;DHT22;1244;54.326;10.074;2022-11-15T08:25:25;6.60;99.90
2465;DHT22;1244;54.326;10.074;2022-11-15T08:27:55;6.60;99.90
2465;DHT22;1244;54.326;10.074;2022-11-15T08:30:21;6.60;99.90
2465;DHT22;1244;54.326;10.074;2022-11-15T08:32:48;6.70;99.90
2465;DHT22;1244;54.326;10.074;2022-11-15T08:35:13;6.70;99.90
2465;DHT22;1244;54.326;10.074;2022-11-15T08:37:39;6.70;99.90
2465;DHT22;1244;54.326;10.074;2022-11-15T08:40:05;6.70;99.90
2465;DHT22;1244;54.326;10.074;2022-11-15T08:42:31;6.70;99.90
2465;DHT22;1244;54.326;10.074;2022-11-15T08:44:56;6.80;99.90
2465;DHT22;1244;54.326;10.074;2022-11-15T08:47:22;6.90;99.90
2465;DHT22;1244;54.326;10.074;2022-11-15T08:49:48;6.90;99.90
2465;DHT22;1244;54.326;10.074;2022-11-15T08:52:14;6.90;99.90
2465;DHT22;1244;54.326;10.074;2022-11-15T08:54:39;6.90;99.90
2465;DHT22;1244;54.326;10.074;2022-11-15T08:57:05;7.00;99.90
2465;DHT22;1244;54.326;10.074;2022-11-15T08:59:31;7.00;99.90
2465;DHT22;1244;54.326;10.074;2022-11-15T09:01:56;7.00;99.90
2465;DHT22;1244;54.326;10.074;2022-11-15T09:04:22;7.00;99.90
2465;DHT22;1244;54.326;10.074;2022-11-15T09:06:47;7.00;99.90
2465;DHT22;1244;54.326;10.074;2022-11-15T09:09:13;7.10;99.90
2465;DHT22;1244;54.326;10.074;2022-11-15T09:11:38;7.10;99.90
2465;DHT22;1244;54.326;10.074;2022-11-15T09:14:04;7.10;99.90
2465;DHT22;1244;54.326;10.074;2022-11-15T09:16:30;7.10;99.90
2465;DHT22;1244;54.326;10.074;2022-11-15T09:18:56;7.20;99.90
2465;DHT22;1244;54.326;10.074;2022-11-15T09:21:22;7.20;99.90
2465;DHT22;1244;54.326;10.074;2022-11-15T09:23:50;7.20;99.90
2465;DHT22;1244;54.326;10.074;2022-11-15T09:26:16;7.20;99.90
2465;DHT22;1244;54.326;10.074;2022-11-15T09:28:42;7.30;99.90
2465;DHT22;1244;54.326;10.074;2022-11-15T09:31:08;7.30;99.90
2465;DHT22;1244;54.326;10.074;2022-11-15T09:33:34;7.30;99.90
2465;DHT22;1244;54.326;10.074;2022-11-15T09:36:09;7.30;99.90
2465;DHT22;1244;54.326;10.074;2022-11-15T09:38:35;7.30;99.90
2465;DHT22;1244;54.326;10.074;2022-11-15T09:44:25;7.40;99.90
2465;DHT22;1244;54.326;10.074;2022-11-15T09:49:14;7.40;99.90
2465;DHT22;1244;54.326;10.074;2022-11-15T09:51:45;7.50;99.90
2465;DHT22;1244;54.326;10.074;2022-11-15T09:56:47;7.50;99.90
2465;DHT22;1244;54.326;10.074;2022-11-15T09:59:27;7.50;99.90
2465;DHT22;1244;54.326;10.074;2022-11-15T10:02:23;7.50;99.90
2465;DHT22;1244;54.326;10.074;2022-11-15T10:04:54;7.60;99.90
2465;DHT22;1244;54.326;10.074;2022-11-15T10:07:37;7.60;99.90
2465;DHT22;1244;54.326;10.074;2022-11-15T10:12:57;7.70;99.90
2465;DHT22;1244;54.326;10.074;2022-11-15T10:15:24;7.70;99.90
2465;DHT22;1244;54.326;10.074;2022-11-15T10:20:27;7.80;99.90
2465;DHT22;1244;54.326;10.074;2022-11-15T10:22:56;7.80;99.90
2465;DHT22;1244;54.326;10.074;2022-11-15T10:25:29;7.80;99.90
2465;DHT22;1244;54.326;10.074;2022-11-15T10:28:21;7.80;99.90
2465;DHT22;1244;54.326;10.074;2022-11-15T10:30:53;7.90;99.90
2465;DHT22;1244;54.326;10.074;2022-11-15T10:39:01;7.90;99.90
2465;DHT22;1244;54.326;10.074;2022-11-15T10:44:19;7.90;99.90
2465;DHT22;1244;54.326;10.074;2022-11-15T10:47:03;7.90;99.90
2465;DHT22;1244;54.326;10.074;2022-11-15T10:49:31;7.90;99.90
2465;DHT22;1244;54.326;10.074;2022-11-15T10:52:17;7.90;99.90
2465;DHT22;1244;54.326;10.074;2022-11-15T10:57:21;7.90;99.90
2465;DHT22;1244;54.326;10.074;2022-11-15T10:59:49;7.90;99.90
2465;DHT22;1244;54.326;10.074;2022-11-15T11:02:37;7.90;99.90
2465;DHT22;1244;54.326;10.074;2022-11-15T11:05:06;7.90;99.90
2465;DHT22;1244;54.326;10.074;2022-11-15T11:07:34;7.90;99.90
2465;DHT22;1244;54.326;10.074;2022-11-15T11:10:19;7.90;99.90
2465;DHT22;1244;54.326;10.074;2022-11-15T11:12:45;7.90;99.90
2465;DHT22;1244;54.326;10.074;2022-11-15T11:15:13;7.90;99.90
2465;DHT22;1244;54.326;10.074;2022-11-15T11:18:10;8.00;99.90
2465;DHT22;1244;54.326;10.074;2022-11-15T11:20:46;8.00;99.90
2465;DHT22;1244;54.326;10.074;2022-11-15T11:26:14;8.10;99.90
2465;DHT22;1244;54.326;10.074;2022-11-15T11:31:28;8.10;99.90
2465;DHT22;1244;54.326;10.074;2022-11-15T11:37:00;8.10;99.90
2465;DHT22;1244;54.326;10.074;2022-11-15T11:39:57;8.20;99.90
2465;DHT22;1244;54.326;10.074;2022-11-15T11:42:39;8.20;99.90
2465;DHT22;1244;54.326;10.074;2022-11-15T11:45:23;8.20;99.90
2465;DHT22;1244;54.326;10.074;2022-11-15T11:48:02;8.30;99.90
2465;DHT22;1244;54.326;10.074;2022-11-15T11:50:37;8.30;99.90
2465;DHT22;1244;54.326;10.074;2022-11-15T11:53:13;8.30;99.90
2465;DHT22;1244;54.326;10.074;2022-11-15T11:55:44;8.30;99.90
2465;DHT22;1244;54.326;10.074;2022-11-15T11:58:24;8.40;99.90
2465;DHT22;1244;54.326;10.074;2022-11-15T12:01:09;8.40;99.90
2465;DHT22;1244;54.326;10.074;2022-11-15T12:06:51;8.50;99.90
2465;DHT22;1244;54.326;10.074;2022-11-15T12:09:38;8.50;99.90
2465;DHT22;1244;54.326;10.074;2022-11-15T12:15:18;8.60;99.90
2465;DHT22;1244;54.326;10.074;2022-11-15T12:17:42;8.60;99.90
2465;DHT22;1244;54.326;10.074;2022-11-15T12:20:20;8.60;99.90
2465;DHT22;1244;54.326;10.074;2022-11-15T12:23:17;8.60;99.90
2465;DHT22;1244;54.326;10.074;2022-11-15T12:25:56;8.70;99.90
2465;DHT22;1244;54.326;10.074;2022-11-15T12:28:32;8.70;99.90
2465;DHT22;1244;54.326;10.074;2022-11-15T12:33:49;8.70;99.90
2465;DHT22;1244;54.326;10.074;2022-11-15T12:39:03;8.70;99.90
2465;DHT22;1244;54.326;10.074;2022-11-15T12:41:34;8.80;99.90
2465;DHT22;1244;54.326;10.074;2022-11-15T12:44:01;8.80;99.90
2465;DHT22;1244;54.326;10.074;2022-11-15T12:49:02;8.70;99.90
2465;DHT22;1244;54.326;10.074;2022-11-15T13:02:24;8.80;99.90
2465;DHT22;1244;54.326;10.074;2022-11-15T13:04:52;8.80;99.90
2465;DHT22;1244;54.326;10.074;2022-11-15T13:10:32;8.90;99.90
2465;DHT22;1244;54.326;10.074;2022-11-15T13:13:03;8.90;99.90
2465;DHT22;1244;54.326;10.074;2022-11-15T13:15:38;8.90;99.90
2465;DHT22;1244;54.326;10.074;2022-11-15T13:20:52;8.80;99.90
2465;DHT22;1244;54.326;10.074;2022-11-15T13:23:17;8.90;99.90
2465;DHT22;1244;54.326;10.074;2022-11-15T13:26:12;8.90;99.90
2465;DHT22;1244;54.326;10.074;2022-11-15T13:28:49;8.90;99.90
2465;DHT22;1244;54.326;10.074;2022-11-15T13:31:29;8.90;99.90
2465;DHT22;1244;54.326;10.074;2022-11-15T13:33:59;8.90;99.90
2465;DHT22;1244;54.326;10.074;2022-11-15T13:36:31;8.90;99.90
2465;DHT22;1244;54.326;10.074;2022-11-15T13:39:06;8.90;99.90
2465;DHT22;1244;54.326;10.074;2022-11-15T13:41:47;8.90;99.90
2465;DHT22;1244;54.326;10.074;2022-11-15T13:44:20;8.90;99.90
2465;DHT22;1244;54.326;10.074;2022-11-15T13:46:46;8.90;99.90
2465;DHT22;1244;54.326;10.074;2022-11-15T13:49:12;8.90;99.90
2465;DHT22;1244;54.326;10.074;2022-11-15T13:51:50;9.00;99.90
2465;DHT22;1244;54.326;10.074;2022-11-15T13:56:55;9.00;99.90
2465;DHT22;1244;54.326;10.074;2022-11-15T13:59:35;9.00;99.90
2465;DHT22;1244;54.326;10.074;2022-11-15T14:02:11;9.00;99.90
2465;DHT22;1244;54.326;10.074;2022-11-15T14:04:39;9.10;99.90
2465;DHT22;1244;54.326;10.074;2022-11-15T14:07:18;9.00;99.90
2465;DHT22;1244;54.326;10.074;2022-11-15T14:09:45;9.10;99.90
2465;DHT22;1244;54.326;10.074;2022-11-15T14:14:52;9.20;99.90
2465;DHT22;1244;54.326;10.074;2022-11-15T14:19:53;9.20;99.90
2465;DHT22;1244;54.326;10.074;2022-11-15T14:22:22;9.20;99.90
2465;DHT22;1244;54.326;10.074;2022-11-15T14:25:16;9.20;99.90
2465;DHT22;1244;54.326;10.074;2022-11-15T14:28:15;9.20;99.90
2465;DHT22;1244;54.326;10.074;2022-11-15T14:30:42;9.20;99.90
2465;DHT22;1244;54.326;10.074;2022-11-15T14:33:23;9.20;99.90
2465;DHT22;1244;54.326;10.074;2022-11-15T14:35:49;9.20;99.90
2465;DHT22;1244;54.326;10.074;2022-11-15T14:38:15;9.20;99.90
2465;DHT22;1244;54.326;10.074;2022-11-15T14:40:41;9.20;99.90
2465;DHT22;1244;54.326;10.074;2022-11-15T14:43:09;9.20;99.90
2465;DHT22;1244;54.326;10.074;2022-11-15T14:45:36;9.20;99.90
2465;DHT22;1244;54.326;10.074;2022-11-15T14:48:02;9.20;99.90
2465;DHT22;1244;54.326;10.074;2022-11-15T14:50:27;9.30;99.90
2465;DHT22;1244;54.326;10.074;2022-11-15T14:52:53;9.30;99.90
2465;DHT22;1244;54.326;10.074;2022-11-15T14:55:27;9.40;99.90
2465;DHT22;1244;54.326;10.074;2022-11-15T14:57:54;9.40;99.90
2465;DHT22;1244;54.326;10.074;2022-11-15T15:00:20;9.50;99.90
2465;DHT22;1244;54.326;10.074;2022-11-15T15:02:47;9.40;99.90
2465;DHT22;1244;54.326;10.074;2022-11-15T15:05:29;9.40;99.90
2465;DHT22;1244;54.326;10.074;2022-11-15T15:07:55;9.40;99.90
2465;DHT22;1244;54.326;10.074;2022-11-15T15:10:21;9.40;99.90
2465;DHT22;1244;54.326;10.074;2022-11-15T15:12:47;9.30;99.90
2465;DHT22;1244;54.326;10.074;2022-11-15T15:15:14;9.20;99.90
2465;DHT22;1244;54.326;10.074;2022-11-15T15:17:40;9.20;99.90
2465;DHT22;1244;54.326;10.074;2022-11-15T15:20:07;9.00;99.90
2465;DHT22;1244;54.326;10.074;2022-11-15T15:22:32;9.00;99.90
2465;DHT22;1244;54.326;10.074;2022-11-15T15:24:58;8.90;99.90
2465;DHT22;1244;54.326;10.074;2022-11-15T15:27:23;8.80;99.90
2465;DHT22;1244;54.326;10.074;2022-11-15T15:29:49;8.80;99.90
2465;DHT22;1244;54.326;10.074;2022-11-15T15:32:14;8.80;99.90
2465;DHT22;1244;54.326;10.074;2022-11-15T15:34:40;8.80;99.90
2465;DHT22;1244;54.326;10.074;2022-11-15T15:37:24;8.80;99.90
2465;DHT22;1244;54.326;10.074;2022-11-15T15:39:55;8.80;99.90
2465;DHT22;1244;54.326;10.074;2022-11-15T15:42:21;8.80;99.90
2465;DHT22;1244;54.326;10.074;2022-11-15T15:44:48;8.70;99.90
2465;DHT22;1244;54.326;10.074;2022-11-15T15:47:16;8.60;99.90
2465;DHT22;1244;54.326;10.074;2022-11-15T15:49:43;8.60;99.90
2465;DHT22;1244;54.326;10.074;2022-11-15T15:52:09;8.60;99.90
2465;DHT22;1244;54.326;10.074;2022-11-15T15:54:34;8.60;99.90
2465;DHT22;1244;54.326;10.074;2022-11-15T15:57:00;8.60;99.90
2465;DHT22;1244;54.326;10.074;2022-11-15T15:59:25;8.60;99.90
2465;DHT22;1244;54.326;10.074;2022-11-15T16:01:51;8.60;99.90
2465;DHT22;1244;54.326;10.074;2022-11-15T16:04:16;8.60;99.90
2465;DHT22;1244;54.326;10.074;2022-11-15T16:06:42;8.40;99.90
2465;DHT22;1244;54.326;10.074;2022-11-15T16:09:16;8.40;99.90
2465;DHT22;1244;54.326;10.074;2022-11-15T16:11:44;8.40;99.90
2465;DHT22;1244;54.326;10.074;2022-11-15T16:14:10;8.40;99.90
2465;DHT22;1244;54.326;10.074;2022-11-15T16:16:35;8.30;99.90
2465;DHT22;1244;54.326;10.074;2022-11-15T16:19:01;8.20;99.90
2465;DHT22;1244;54.326;10.074;2022-11-15T16:21:27;8.20;99.90
2465;DHT22;1244;54.326;10.074;2022-11-15T16:23:53;8.10;99.90
2465;DHT22;1244;54.326;10.074;2022-11-15T16:26:25;8.20;99.90
2465;DHT22;1244;54.326;10.074;2022-11-15T16:28:51;8.10;99.90
2465;DHT22;1244;54.326;10.074;2022-11-15T16:31:16;8.20;99.90
2465;DHT22;1244;54.326;10.074;2022-11-15T16:33:45;8.10;99.90
2465;DHT22;1244;54.326;10.074;2022-11-15T16:36:24;8.10;99.90
2465;DHT22;1244;54.326;10.074;2022-11-15T16:38:50;8.30;99.90
2465;DHT22;1244;54.326;10.074;2022-11-15T16:41:17;8.30;99.90
2465;DHT22;1244;54.326;10.074;2022-11-15T16:43:47;8.40;99.90
2465;DHT22;1244;54.326;10.074;2022-11-15T16:46:19;8.50;99.90
2465;DHT22;1244;54.326;10.074;2022-11-15T16:48:45;8.50;99.90
2465;DHT22;1244;54.326;10.074;2022-11-15T16:51:11;8.50;99.90
2465;DHT22;1244;54.326;10.074;2022-11-15T16:53:37;8.60;99.90
2465;DHT22;1244;54.326;10.074;2022-11-15T16:56:03;8.60;99.90
2465;DHT22;1244;54.326;10.074;2022-11-15T16:58:29;8.50;99.90
2465;DHT22;1244;54.326;10.074;2022-11-15T17:00:55;8.40;99.90
2465;DHT22;1244;54.326;10.074;2022-11-15T17:03:22;8.40;99.90
2465;DHT22;1244;54.326;10.074;2022-11-15T17:05:48;8.30;99.90
2465;DHT22;1244;54.326;10.074;2022-11-15T17:08:14;8.40;99.90
2465;DHT22;1244;54.326;10.074;2022-11-15T17:10:40;8.40;99.90
2465;DHT22;1244;54.326;10.074;2022-11-15T17:13:09;8.50;99.90
2465;DHT22;1244;54.326;10.074;2022-11-15T17:15:35;8.50;99.90
2465;DHT22;1244;54.326;10.074;2022-11-15T17:18:01;8.40;99.90
2465;DHT22;1244;54.326;10.074;2022-11-15T17:20:27;8.30;99.90
2465;DHT22;1244;54.326;10.074;2022-11-15T17:22:52;8.30;99.90
2465;DHT22;1244;54.326;10.074;2022-11-15T17:25:18;8.30;99.90
2465;DHT22;1244;54.326;10.074;2022-11-15T17:27:44;8.40;99.90
2465;DHT22;1244;54.326;10.074;2022-11-15T17:30:12;8.40;99.90
2465;DHT22;1244;54.326;10.074;2022-11-15T17:32:40;8.40;99.90
2465;DHT22;1244;54.326;10.074;2022-11-15T17:35:06;8.50;99.90
2465;DHT22;1244;54.326;10.074;2022-11-15T17:37:32;8.50;99.90
2465;DHT22;1244;54.326;10.074;2022-11-15T17:39:58;8.60;99.90
2465;DHT22;1244;54.326;10.074;2022-11-15T17:42:23;8.50;99.90
2465;DHT22;1244;54.326;10.074;2022-11-15T17:44:49;8.60;99.90
2465;DHT22;1244;54.326;10.074;2022-11-15T17:47:14;8.60;99.90
2465;DHT22;1244;54.326;10.074;2022-11-15T17:49:40;8.60;99.90